createdAt,value
2024-04-18T00:04:10.438Z,7.70
2024-04-18T00:09:13.229Z,7.64
2024-04-18T00:14:15.898Z,7.57
2024-04-18T00:19:18.737Z,7.48
2024-04-18T00:24:21.466Z,7.47
2024-04-18T00:29:24.211Z,7.41
2024-04-18T00:34:26.837Z,7.39
2024-04-18T00:39:29.528Z,7.35
2024-04-18T00:44:32.461Z,7.30
2024-04-18T00:49:35.183Z,7.26
2024-04-18T00:54:37.938Z,7.23
2024-04-18T00:59:40.585Z,7.23
2024-04-18T01:04:43.469Z,7.18
2024-04-18T01:09:46.283Z,7.10
2024-04-18T01:14:48.990Z,7.03
2024-04-18T01:19:51.678Z,7.02
2024-04-18T01:24:54.405Z,7.01
2024-04-18T01:29:57.123Z,7.07
2024-04-18T01:34:59.789Z,7.07
2024-04-18T01:40:02.483Z,7.02
2024-04-18T01:45:07.358Z,7.03
2024-04-18T01:50:12.686Z,7.00
2024-04-18T01:55:15.357Z,6.97
2024-04-18T02:00:17.658Z,6.98
2024-04-18T02:05:20.291Z,7.11
2024-04-18T02:10:23.028Z,7.15
2024-04-18T02:15:26.015Z,7.19
2024-04-18T02:20:28.740Z,7.28
2024-04-18T02:25:31.357Z,7.35
2024-04-18T02:30:34.262Z,7.42
2024-04-18T02:35:36.951Z,7.48
2024-04-18T02:40:39.641Z,7.50
2024-04-18T02:45:42.772Z,7.40
2024-04-18T02:50:45.434Z,7.45
2024-04-18T02:55:48.317Z,7.44
2024-04-18T03:00:51.009Z,7.54
2024-04-18T03:06:03.114Z,7.69
2024-04-18T03:11:05.900Z,7.82
2024-04-18T03:16:08.861Z,8.01
2024-04-18T03:21:11.484Z,7.91
2024-04-18T03:26:14.139Z,8.03
2024-04-18T03:31:16.831Z,7.99
2024-04-18T03:36:19.577Z,8.05
2024-04-18T03:41:22.197Z,8.20
2024-04-18T03:46:24.787Z,8.22
2024-04-18T03:51:27.165Z,7.92
2024-04-18T03:56:29.771Z,7.92
2024-04-18T04:01:32.775Z,7.98
2024-04-18T04:06:35.790Z,7.85
2024-04-18T04:11:38.450Z,7.97
2024-04-18T04:16:41.141Z,7.68
2024-04-18T04:21:43.875Z,7.60
2024-04-18T04:26:46.598Z,7.74
2024-04-18T04:31:49.235Z,7.81
2024-04-18T04:36:52.069Z,7.96
2024-04-18T04:41:54.749Z,8.08
2024-04-18T04:46:57.587Z,8.31
2024-04-18T04:52:00.322Z,8.50
2024-04-18T04:57:03.096Z,8.61
2024-04-18T05:02:06.094Z,8.78
2024-04-18T05:07:08.927Z,8.71
2024-04-18T05:12:11.551Z,9.02
2024-04-18T05:17:14.267Z,9.04
2024-04-18T05:22:16.868Z,9.06
2024-04-18T05:27:19.500Z,9.35
2024-04-18T05:32:22.230Z,9.35
2024-04-18T05:37:25.002Z,9.33
2024-04-18T05:42:27.619Z,9.23
2024-04-18T05:47:30.383Z,9.28
2024-04-18T05:52:33.072Z,9.73
2024-04-18T05:57:35.724Z,10.33
2024-04-18T06:02:38.471Z,10.76
2024-04-18T06:07:44.056Z,11.09
2024-04-18T06:12:48.589Z,12.30
2024-04-18T06:17:51.425Z,13.17
2024-04-18T06:22:54.172Z,13.22
2024-04-18T06:27:57.429Z,14.54
2024-04-18T06:33:00.322Z,14.60
2024-04-18T06:38:03.449Z,15.10
2024-04-18T06:43:06.059Z,15.86
2024-04-18T06:48:09.028Z,15.63
2024-04-18T06:53:11.690Z,15.15
2024-04-18T06:58:14.347Z,13.53
2024-04-18T07:03:17.154Z,13.28
2024-04-18T07:08:19.831Z,12.67
2024-04-18T07:13:22.467Z,12.96
2024-04-18T07:18:25.242Z,13.01
2024-04-18T07:23:27.918Z,13.29
2024-04-18T07:28:30.604Z,13.13
2024-04-18T07:33:33.473Z,12.76
2024-04-18T07:38:36.283Z,12.82
2024-04-18T07:43:39.097Z,12.19
2024-04-18T07:48:42.227Z,12.32
2024-04-18T07:53:45.029Z,12.02
2024-04-18T07:58:47.940Z,12.10
2024-04-18T08:04:02.590Z,12.40
2024-04-18T08:09:15.781Z,12.10
2024-04-18T08:14:24.965Z,12.09
2024-04-18T08:19:30.300Z,13.08
2024-04-18T08:24:32.906Z,13.43
2024-04-18T08:29:35.599Z,12.82
2024-04-18T08:34:41.107Z,12.12
2024-04-18T08:39:45.776Z,11.80
2024-04-18T08:44:48.373Z,11.84
2024-04-18T08:49:51.033Z,12.00
2024-04-18T08:54:53.813Z,11.58
2024-04-18T09:00:00.881Z,11.39
2024-04-18T09:05:03.533Z,11.42
2024-04-18T09:10:10.090Z,11.68
2024-04-18T09:15:12.632Z,11.89
2024-04-18T09:20:15.336Z,12.12
2024-04-18T09:25:18.003Z,12.31
2024-04-18T09:30:21.075Z,12.25
2024-04-18T09:35:23.849Z,11.79
2024-04-18T09:40:27.473Z,11.93
2024-04-18T09:45:50.604Z,11.83
2024-04-18T09:50:53.291Z,11.77
2024-04-18T09:55:55.920Z,11.64
2024-04-18T10:00:58.776Z,11.55
2024-04-18T10:06:05.133Z,11.61
2024-04-18T10:11:08.389Z,11.51
2024-04-18T10:16:12.009Z,11.48
2024-04-18T10:21:32.914Z,11.49
2024-04-18T10:26:40.815Z,10.93
2024-04-18T10:31:43.385Z,10.25
2024-04-18T10:36:46.068Z,10.19
2024-04-18T10:41:48.713Z,10.09
2024-04-18T10:46:51.663Z,9.99
2024-04-18T10:51:54.295Z,9.96
2024-04-18T10:56:56.960Z,9.93
2024-04-18T11:02:08.778Z,9.80
2024-04-18T11:07:11.482Z,9.64
2024-04-18T11:12:14.237Z,9.72
2024-04-18T11:17:16.902Z,9.72
2024-04-18T11:22:19.517Z,9.50
2024-04-18T11:27:26.998Z,9.46
2024-04-18T11:32:32.454Z,9.40
2024-04-18T11:37:39.542Z,9.42
2024-04-18T11:42:43.498Z,9.32
2024-04-18T11:47:46.422Z,9.21
2024-04-18T11:52:49.126Z,9.29
2024-04-18T11:57:51.765Z,9.26
2024-04-18T12:02:54.540Z,8.95
2024-04-18T12:07:57.353Z,8.94
2024-04-18T12:12:59.950Z,8.66
2024-04-18T12:18:02.709Z,8.80
2024-04-18T12:23:05.504Z,9.17
2024-04-18T12:28:08.094Z,9.17
2024-04-18T12:33:13.572Z,8.89
2024-04-18T12:38:16.403Z,8.77
2024-04-18T12:43:20.409Z,8.75
2024-04-18T12:48:23.213Z,8.73
2024-04-18T12:53:26.075Z,8.55
2024-04-18T12:58:28.683Z,8.52
2024-04-18T13:03:31.458Z,8.51
2024-04-18T13:08:34.176Z,8.33
2024-04-18T13:13:36.746Z,8.38
2024-04-18T13:18:39.009Z,8.09
2024-04-18T13:23:41.612Z,7.98
2024-04-18T13:28:44.241Z,7.58
2024-04-18T13:33:47.066Z,7.56
2024-04-18T13:38:50.491Z,7.81
2024-04-18T13:43:53.072Z,7.75
2024-04-18T13:48:55.673Z,7.78
2024-04-18T13:53:58.399Z,7.75
2024-04-18T13:59:01.087Z,7.84
2024-04-18T14:04:04.279Z,7.62
2024-04-18T14:09:09.368Z,7.50
2024-04-18T14:14:15.822Z,7.49
2024-04-18T14:19:18.187Z,7.42
2024-04-18T14:24:20.993Z,7.59
2024-04-18T14:29:23.764Z,7.16
2024-04-18T14:34:26.525Z,6.74
2024-04-18T14:39:29.249Z,6.69
2024-04-18T14:44:31.969Z,6.74
2024-04-18T14:49:34.637Z,6.59
2024-04-18T14:54:37.287Z,6.51
2024-04-18T14:59:39.918Z,6.57
2024-04-18T15:04:42.633Z,6.51
2024-04-18T15:09:45.395Z,6.26
2024-04-18T15:14:50.177Z,6.39
2024-04-18T15:19:53.568Z,6.48
2024-04-18T15:24:56.144Z,6.38
2024-04-18T15:29:58.411Z,6.13
2024-04-18T15:35:01.063Z,6.12
2024-04-18T15:40:03.895Z,6.04
2024-04-18T15:45:10.245Z,5.99
2024-04-18T15:50:13.191Z,6.01
2024-04-18T15:55:20.323Z,5.79
2024-04-18T16:00:24.867Z,5.95
2024-04-18T16:05:27.572Z,5.79
2024-04-18T16:10:30.334Z,5.74
2024-04-18T16:15:33.186Z,5.59
2024-04-18T16:20:36.036Z,5.53
2024-04-18T16:25:38.751Z,5.59
2024-04-18T16:30:46.266Z,5.65
2024-04-18T16:35:48.972Z,5.62
2024-04-18T16:40:52.175Z,5.66
2024-04-18T16:45:55.426Z,5.59
2024-04-18T16:50:58.010Z,5.46
2024-04-18T16:56:00.684Z,5.55
2024-04-18T17:01:03.887Z,5.41
2024-04-18T17:06:07.010Z,5.38
2024-04-18T17:11:09.720Z,5.42
2024-04-18T17:16:12.845Z,5.37
2024-04-18T17:21:15.641Z,5.26
2024-04-18T17:26:18.372Z,5.39
2024-04-18T17:31:21.106Z,5.31
2024-04-18T17:36:23.806Z,5.27
2024-04-18T17:41:26.603Z,5.18
2024-04-18T17:46:29.443Z,5.22
2024-04-18T17:51:32.223Z,5.30
2024-04-18T17:56:34.954Z,5.26
2024-04-18T18:01:39.961Z,5.23
2024-04-18T18:06:44.460Z,5.26
2024-04-18T18:17:31.267Z,5.23
2024-04-18T18:22:33.974Z,5.27
2024-04-18T18:27:36.660Z,5.33
2024-04-18T18:32:39.503Z,5.30
2024-04-18T18:37:42.284Z,5.36
2024-04-18T18:42:44.974Z,5.34
2024-04-18T18:47:47.849Z,5.13
2024-04-18T18:52:50.570Z,5.13
2024-04-18T18:57:53.283Z,4.98
2024-04-18T19:03:32.978Z,4.96
2024-04-18T19:08:41.722Z,4.90
2024-04-18T19:13:50.161Z,4.85
2024-04-18T19:18:52.878Z,4.87
2024-04-18T19:23:55.534Z,4.93
2024-04-18T19:28:57.809Z,4.81
2024-04-18T19:34:00.727Z,4.84
2024-04-18T19:39:03.739Z,4.69
2024-04-18T19:44:06.367Z,4.79
2024-04-18T19:49:09.586Z,4.90
2024-04-18T19:54:12.310Z,4.90
2024-04-18T19:59:15.084Z,5.03
2024-04-18T20:05:06.993Z,5.15
2024-04-18T20:10:21.559Z,4.97
2024-04-18T20:15:24.244Z,4.85
2024-04-18T20:20:26.865Z,4.93
2024-04-18T20:25:29.078Z,4.94
2024-04-18T20:30:31.771Z,5.02
2024-04-18T20:35:34.551Z,5.00
2024-04-18T20:40:37.257Z,4.92
2024-04-18T20:45:39.899Z,4.92
2024-04-18T20:50:42.635Z,4.81
2024-04-18T20:55:45.319Z,4.73
2024-04-18T21:00:48.078Z,4.78
2024-04-18T21:05:50.927Z,4.74
2024-04-18T21:10:53.675Z,4.62
2024-04-18T21:16:00.493Z,4.73
2024-04-18T21:21:03.204Z,4.82
2024-04-18T21:26:06.266Z,4.69
2024-04-18T21:31:08.871Z,4.65
2024-04-18T21:36:11.187Z,4.82
2024-04-18T21:41:13.780Z,4.69
2024-04-18T21:46:16.398Z,4.76
2024-04-18T21:51:19.167Z,4.75
2024-04-18T21:56:21.891Z,4.68
2024-04-18T22:01:24.645Z,4.64
2024-04-18T22:06:27.401Z,4.64
2024-04-18T22:11:30.294Z,4.72
2024-04-18T22:16:32.981Z,4.80
2024-04-18T22:21:39.114Z,4.78
2024-04-18T22:26:41.786Z,4.70
2024-04-18T22:31:44.636Z,4.68
2024-04-18T22:36:47.309Z,4.59
2024-04-18T22:41:49.986Z,4.68
2024-04-18T22:46:52.656Z,4.63
2024-04-18T22:51:55.355Z,4.68
2024-04-18T22:56:58.005Z,4.65
2024-04-18T23:02:00.968Z,4.59
2024-04-18T23:07:03.756Z,4.64
2024-04-18T23:12:06.646Z,4.59
2024-04-18T23:17:09.257Z,4.56
2024-04-18T23:22:11.521Z,4.56
2024-04-18T23:27:14.334Z,4.59
2024-04-18T23:32:17.091Z,4.53
2024-04-18T23:37:19.800Z,4.66
2024-04-18T23:42:22.518Z,4.68
2024-04-18T23:47:25.401Z,4.74
2024-04-18T23:52:28.118Z,4.63
2024-04-18T23:57:30.792Z,4.61
